createdAt,value
2018-12-23T00:00:43.930Z,3.67
2018-12-23T00:03:14.031Z,3.60
2018-12-23T00:05:43.325Z,3.47
2018-12-23T00:08:11.816Z,3.73
2018-12-23T00:10:40.745Z,3.50
2018-12-23T00:13:09.248Z,3.73
2018-12-23T00:15:38.105Z,3.27
2018-12-23T00:18:08.598Z,3.77
2018-12-23T00:20:37.005Z,3.37
2018-12-23T00:23:05.523Z,3.03
2018-12-23T00:25:34.962Z,3.37
2018-12-23T00:28:04.376Z,3.57
2018-12-23T00:30:33.089Z,3.60
2018-12-23T00:33:02.890Z,3.40
2018-12-23T00:35:31.765Z,3.80
2018-12-23T00:38:00.365Z,3.60
2018-12-23T00:40:28.933Z,3.83
2018-12-23T00:42:57.405Z,3.77
2018-12-23T00:45:25.827Z,3.90
2018-12-23T00:47:55.347Z,3.93
2018-12-23T00:50:23.750Z,3.40
2018-12-23T00:52:52.181Z,4.43
2018-12-23T00:55:21.032Z,3.93
2018-12-23T00:57:49.424Z,3.50
2018-12-23T01:00:17.921Z,3.67
2018-12-23T01:02:46.778Z,2.93
2018-12-23T01:05:15.297Z,3.43
2018-12-23T01:07:43.699Z,3.50
2018-12-23T01:10:12.599Z,3.37
2018-12-23T01:12:41.007Z,3.50
2018-12-23T01:15:09.569Z,3.10
2018-12-23T01:17:38.305Z,3.10
2018-12-23T01:20:08.008Z,3.50
2018-12-23T01:22:36.416Z,3.43
2018-12-23T01:25:05.577Z,3.90
2018-12-23T01:27:34.061Z,3.57
2018-12-23T01:30:02.542Z,3.47
2018-12-23T01:32:31.149Z,2.77
2018-12-23T01:34:59.523Z,3.60
2018-12-23T01:37:27.893Z,3.43
2018-12-23T01:39:56.740Z,2.97
2018-12-23T01:42:25.130Z,3.00
2018-12-23T01:44:53.640Z,3.30
2018-12-23T01:47:22.853Z,2.90
2018-12-23T01:49:51.629Z,3.73
2018-12-23T01:52:20.155Z,4.03
2018-12-23T01:54:48.676Z,2.90
2018-12-23T01:57:17.089Z,2.90
2018-12-23T01:59:45.777Z,3.90
2018-12-23T02:02:14.627Z,3.00
2018-12-23T02:04:43.084Z,3.07
2018-12-23T02:07:11.694Z,2.53
2018-12-23T02:09:40.365Z,3.00
2018-12-23T02:12:08.766Z,3.07
2018-12-23T02:14:37.195Z,3.00
2018-12-23T02:17:05.808Z,3.10
2018-12-23T02:19:34.192Z,3.00
2018-12-23T02:22:02.573Z,3.07
2018-12-23T02:24:31.313Z,2.67
2018-12-23T02:26:59.729Z,3.03
2018-12-23T02:29:28.108Z,3.00
2018-12-23T02:31:57.013Z,2.53
2018-12-23T02:34:25.417Z,2.30
2018-12-23T02:36:53.840Z,2.60
2018-12-23T02:39:22.491Z,2.77
2018-12-23T02:41:50.879Z,2.57
2018-12-23T02:44:19.278Z,3.10
2018-12-23T02:46:48.181Z,3.10
2018-12-23T02:49:16.598Z,2.80
2018-12-23T02:51:45.155Z,3.07
2018-12-23T02:54:14.249Z,2.80
2018-12-23T02:56:42.762Z,3.37
2018-12-23T02:59:11.150Z,3.03
2018-12-23T03:01:39.999Z,3.00
2018-12-23T03:04:08.390Z,3.50
2018-12-23T03:06:36.791Z,3.37
2018-12-23T03:09:07.650Z,3.37
2018-12-23T03:11:36.164Z,2.73
2018-12-23T03:14:04.583Z,3.00
2018-12-23T03:16:33.338Z,2.90
2018-12-23T03:19:01.693Z,3.20
2018-12-23T03:21:30.272Z,3.03
2018-12-23T03:23:58.944Z,2.77
2018-12-23T03:26:27.330Z,2.97
2018-12-23T03:28:55.712Z,2.90
2018-12-23T03:31:24.522Z,2.83
2018-12-23T03:33:52.888Z,2.60
2018-12-23T03:36:21.279Z,3.10
2018-12-23T03:38:49.828Z,3.03
2018-12-23T03:41:18.338Z,2.87
2018-12-23T03:43:46.738Z,2.73
2018-12-23T03:46:15.725Z,3.00
2018-12-23T03:48:44.086Z,2.83
2018-12-23T03:51:12.476Z,2.63
2018-12-23T03:53:41.226Z,3.00
2018-12-23T03:56:09.607Z,3.10
2018-12-23T03:58:37.986Z,3.10
2018-12-23T04:01:06.668Z,2.97
2018-12-23T04:03:35.259Z,3.27
2018-12-23T04:06:03.623Z,3.10
2018-12-23T04:08:32.692Z,2.73
2018-12-23T04:11:01.055Z,3.30
2018-12-23T04:13:29.511Z,3.20
2018-12-23T04:15:58.718Z,3.00
2018-12-23T04:18:27.081Z,3.33
2018-12-23T04:20:55.464Z,3.30
2018-12-23T04:23:24.144Z,2.93
2018-12-23T04:25:52.604Z,3.07
2018-12-23T04:28:21.061Z,3.20
2018-12-23T04:30:49.772Z,2.97
2018-12-23T04:33:18.158Z,2.83
2018-12-23T04:35:46.560Z,3.20
2018-12-23T04:38:15.657Z,2.80
2018-12-23T04:40:44.046Z,3.10
2018-12-23T04:43:12.442Z,2.60
2018-12-23T04:45:41.097Z,3.50
2018-12-23T04:48:09.468Z,2.70
2018-12-23T04:50:37.835Z,3.37
2018-12-23T04:53:06.537Z,3.00
2018-12-23T04:55:35.004Z,2.87
2018-12-23T04:58:03.916Z,3.00
2018-12-23T05:00:32.425Z,3.10
2018-12-23T05:03:00.801Z,3.10
2018-12-23T05:05:29.198Z,3.03
2018-12-23T05:07:58.039Z,3.10
2018-12-23T05:10:26.404Z,3.30
2018-12-23T05:12:54.782Z,3.53
2018-12-23T05:15:23.385Z,2.80
2018-12-23T05:17:51.858Z,3.10
2018-12-23T05:20:20.548Z,2.40
2018-12-23T05:22:49.095Z,3.10
2018-12-23T05:25:17.469Z,2.70
2018-12-23T05:27:45.840Z,2.77
2018-12-23T05:30:14.485Z,3.20
2018-12-23T05:32:43.130Z,3.10
2018-12-23T05:35:11.660Z,2.70
2018-12-23T05:37:40.171Z,2.80
2018-12-23T05:40:08.537Z,2.97
2018-12-23T05:42:36.917Z,2.90
2018-12-23T05:45:06.166Z,2.83
2018-12-23T05:47:34.552Z,3.40
2018-12-23T05:50:03.049Z,3.00
2018-12-23T05:52:31.640Z,3.03
2018-12-23T05:55:00.013Z,3.40
2018-12-23T05:57:28.500Z,2.73
2018-12-23T05:59:57.423Z,2.73
2018-12-23T06:02:25.897Z,2.93
2018-12-23T06:04:54.299Z,2.80
2018-12-23T06:07:23.101Z,3.27
2018-12-23T06:09:51.500Z,2.80
2018-12-23T06:12:19.879Z,2.73
2018-12-23T06:14:48.612Z,2.80
2018-12-23T06:17:16.994Z,3.23
2018-12-23T06:19:45.826Z,2.70
2018-12-23T06:22:14.629Z,3.33
2018-12-23T06:24:43.079Z,5.37
2018-12-23T06:27:11.565Z,3.00
2018-12-23T06:29:40.969Z,2.73
2018-12-23T06:32:09.345Z,3.50
2018-12-23T06:34:37.905Z,2.83
2018-12-23T06:37:10.374Z,3.27
2018-12-23T06:39:37.340Z,2.57
2018-12-23T06:42:05.761Z,3.07
2018-12-23T06:44:34.361Z,2.57
2018-12-23T06:47:02.734Z,3.20
2018-12-23T06:49:31.156Z,3.50
2018-12-23T06:51:59.753Z,2.73
2018-12-23T06:54:28.165Z,2.50
2018-12-23T06:57:03.330Z,3.33
2018-12-23T06:59:31.832Z,2.67
2018-12-23T07:02:00.308Z,3.17
2018-12-23T07:04:28.872Z,4.30
2018-12-23T07:06:57.692Z,3.67
2018-12-23T07:09:26.121Z,3.43
2018-12-23T07:11:54.832Z,3.10
2018-12-23T07:14:23.204Z,3.03
2018-12-23T07:16:51.645Z,3.43
2018-12-23T07:19:20.517Z,3.30
2018-12-23T07:25:04.345Z,3.40
2018-12-23T07:27:33.969Z,3.00
2018-12-23T07:30:03.658Z,2.73
2018-12-23T07:32:33.528Z,5.70
2018-12-23T07:35:22.112Z,3.77
2018-12-23T07:37:51.992Z,3.60
2018-12-23T07:40:21.622Z,3.47
2018-12-23T07:42:51.288Z,3.37
2018-12-23T07:45:21.161Z,3.50
2018-12-23T07:48:09.732Z,3.27
2018-12-23T07:50:39.627Z,3.30
2018-12-23T07:53:09.279Z,3.20
2018-12-23T07:55:38.936Z,3.20
2018-12-23T07:58:08.816Z,3.10
2018-12-23T08:00:38.532Z,3.10
2018-12-23T08:03:08.422Z,3.17
2018-12-23T08:05:38.764Z,3.50
2018-12-23T08:08:08.390Z,3.57
2018-12-23T08:10:38.042Z,4.07
2018-12-23T08:13:07.991Z,3.13
2018-12-23T08:15:39.761Z,3.23
2018-12-23T08:18:09.560Z,3.10
2018-12-23T08:23:14.323Z,3.30
2018-12-23T08:25:44.099Z,3.17
2018-12-23T08:28:13.791Z,3.80
2018-12-23T08:30:43.512Z,3.50
2018-12-23T08:33:13.177Z,3.63
2018-12-23T08:35:42.788Z,3.60
2018-12-23T08:38:12.765Z,4.30
2018-12-23T08:40:42.557Z,3.23
2018-12-23T08:43:12.224Z,3.40
2018-12-23T08:45:42.112Z,3.70
2018-12-23T08:48:11.585Z,3.40
2018-12-23T08:50:41.218Z,3.67
2018-12-23T08:53:11.040Z,3.13
2018-12-23T08:55:40.721Z,3.70
2018-12-23T08:58:10.378Z,4.03
2018-12-23T09:00:40.563Z,3.03
2018-12-23T09:03:18.684Z,3.53
2018-12-23T09:05:41.924Z,3.57
2018-12-23T09:08:11.733Z,2.83
2018-12-23T09:10:41.957Z,3.07
2018-12-23T09:13:30.772Z,3.53
2018-12-23T09:16:00.656Z,3.50
2018-12-23T09:18:30.377Z,3.63
2018-12-23T09:21:18.979Z,3.73
2018-12-23T09:23:48.630Z,3.20
2018-12-23T09:26:37.332Z,3.43
2018-12-23T09:29:06.984Z,3.30
2018-12-23T09:31:36.604Z,3.50
2018-12-23T09:34:06.409Z,3.40
2018-12-23T09:36:36.019Z,3.70
2018-12-23T09:39:44.911Z,2.97
2018-12-23T09:42:14.542Z,3.60
2018-12-23T09:44:44.203Z,3.27
2018-12-23T09:47:13.945Z,3.17
2018-12-23T09:49:43.654Z,3.63
2018-12-23T09:52:13.291Z,3.40
2018-12-23T09:54:43.020Z,3.37
2018-12-23T09:57:12.631Z,3.27
2018-12-23T09:59:42.273Z,3.30
2018-12-23T10:02:12.032Z,3.53
2018-12-23T10:04:41.773Z,3.60
2018-12-23T10:07:11.720Z,3.63
2018-12-23T10:09:43.787Z,3.60
2018-12-23T10:12:13.457Z,3.53
2018-12-23T10:14:43.112Z,4.33
2018-12-23T10:17:13.045Z,3.80
2018-12-23T10:19:42.653Z,5.83
2018-12-23T10:22:12.284Z,3.80
2018-12-23T10:24:42.040Z,3.27
2018-12-23T10:27:11.681Z,3.50
2018-12-23T10:29:41.319Z,3.30
2018-12-23T10:32:11.179Z,3.10
2018-12-23T10:34:40.843Z,3.63
2018-12-23T10:37:10.518Z,3.63
2018-12-23T10:39:59.240Z,3.20
2018-12-23T10:42:28.876Z,3.70
2018-12-23T10:44:58.637Z,3.43
2018-12-23T10:47:28.787Z,3.70
2018-12-23T10:49:58.430Z,4.07
2018-12-23T10:52:28.040Z,3.70
2018-12-23T10:54:57.908Z,4.00
2018-12-23T10:57:27.551Z,4.33
2018-12-23T10:59:57.175Z,4.33
2018-12-23T11:02:27.111Z,3.47
2018-12-23T11:04:56.734Z,4.03
2018-12-23T11:07:26.872Z,3.83
2018-12-23T11:10:01.972Z,3.57
2018-12-23T11:12:28.225Z,4.10
2018-12-23T11:14:58.048Z,3.87
2018-12-23T11:17:27.822Z,3.73
2018-12-23T11:19:57.456Z,4.20
2018-12-23T11:22:27.240Z,3.63
2018-12-23T11:25:15.946Z,4.53
2018-12-23T11:27:45.700Z,3.90
2018-12-23T11:30:15.355Z,4.20
2018-12-23T11:33:04.298Z,3.73
2018-12-23T11:35:33.928Z,3.83
2018-12-23T11:40:53.959Z,3.50
2018-12-23T11:43:23.639Z,3.77
2018-12-23T11:46:12.327Z,5.43
2018-12-23T11:48:41.957Z,4.43
2018-12-23T11:51:30.749Z,4.10
2018-12-23T11:54:00.391Z,3.97
2018-12-23T11:56:30.021Z,3.83
2018-12-23T11:58:59.781Z,3.60
2018-12-23T12:01:29.422Z,4.20
2018-12-23T12:03:59.052Z,3.63
2018-12-23T12:06:28.995Z,3.93
2018-12-23T12:09:10.225Z,4.20
2018-12-23T12:11:40.372Z,4.07
2018-12-23T12:14:10.008Z,3.80
2018-12-23T12:16:39.657Z,4.00
2018-12-23T12:19:48.711Z,4.10
2018-12-23T12:22:20.881Z,3.93
2018-12-23T12:24:50.990Z,3.63
2018-12-23T12:27:20.699Z,4.03
2018-12-23T12:29:50.343Z,3.60
2018-12-23T12:32:20.163Z,4.30
2018-12-23T12:34:49.841Z,4.33
2018-12-23T12:37:19.474Z,4.33
2018-12-23T12:39:49.597Z,3.80
2018-12-23T12:42:20.197Z,3.83
2018-12-23T12:45:08.976Z,3.43
2018-12-23T12:50:13.625Z,3.70
2018-12-23T12:52:43.269Z,3.97
2018-12-23T12:55:12.931Z,3.73
2018-12-23T12:57:42.675Z,4.03
2018-12-23T13:00:12.375Z,4.00
2018-12-23T13:02:41.999Z,4.20
2018-12-23T13:05:11.751Z,3.70
2018-12-23T13:08:00.241Z,3.77
2018-12-23T13:10:41.521Z,4.03
2018-12-23T13:13:11.232Z,3.90
2018-12-23T13:15:40.881Z,4.20
2018-12-23T13:18:10.606Z,3.80
2018-12-23T13:20:40.318Z,3.57
2018-12-23T13:23:09.979Z,3.90
2018-12-23T13:25:39.869Z,4.07
2018-12-23T13:28:09.556Z,4.03
2018-12-23T13:30:39.193Z,4.00
2018-12-23T13:33:28.149Z,3.83
2018-12-23T13:36:16.840Z,3.90
2018-12-23T13:38:46.846Z,3.90
2018-12-23T13:41:41.843Z,3.23
2018-12-23T13:44:45.297Z,3.60
2018-12-23T13:47:52.753Z,4.13
2018-12-23T13:51:00.342Z,3.63
2018-12-23T13:54:07.803Z,3.10
2018-12-23T13:57:15.501Z,3.57
2018-12-23T14:00:23.251Z,3.47
2018-12-23T14:03:30.948Z,3.53
2018-12-23T14:06:25.435Z,3.50
2018-12-23T14:09:33.365Z,3.50
2018-12-23T14:12:03.133Z,3.73
2018-12-23T14:14:32.788Z,4.30
2018-12-23T14:17:02.631Z,3.77
2018-12-23T14:19:32.267Z,3.70
2018-12-23T14:22:01.906Z,5.33
2018-12-23T14:24:31.782Z,4.40
2018-12-23T14:27:01.423Z,4.20
2018-12-23T14:29:31.090Z,3.47
2018-12-23T14:32:00.992Z,3.70
2018-12-23T14:34:49.583Z,3.67
2018-12-23T14:39:54.279Z,3.93
2018-12-23T14:42:23.983Z,4.17
2018-12-23T14:44:53.650Z,3.33
2018-12-23T14:47:23.513Z,3.57
2018-12-23T14:50:12.003Z,3.97
2018-12-23T14:52:41.882Z,5.60
2018-12-23T14:55:12.764Z,3.83
2018-12-23T14:57:42.841Z,3.43
2018-12-23T15:00:48.462Z,4.10
2018-12-23T15:06:14.762Z,4.07
2018-12-23T15:11:53.610Z,3.87
2018-12-23T15:14:23.325Z,3.87
2018-12-23T15:16:53.137Z,3.67
2018-12-23T15:19:22.898Z,4.00
2018-12-23T15:22:11.334Z,3.70
2018-12-23T15:24:41.274Z,3.77
2018-12-23T15:27:10.967Z,4.03
2018-12-23T15:29:40.593Z,3.90
2018-12-23T15:32:10.384Z,3.70
2018-12-23T15:34:40.051Z,3.57
2018-12-23T15:37:28.760Z,3.60
2018-12-23T15:39:58.397Z,4.00
2018-12-23T15:42:28.162Z,3.53
2018-12-23T15:44:58.002Z,3.70
2018-12-23T15:47:46.435Z,3.83
2018-12-23T15:50:16.351Z,3.73
2018-12-23T15:52:46.016Z,3.37
2018-12-23T15:55:15.636Z,4.27
2018-12-23T15:57:45.519Z,4.73
2018-12-23T16:00:15.156Z,4.17
2018-12-23T16:02:44.788Z,4.83
2018-12-23T16:05:14.715Z,4.10
2018-12-23T16:07:44.394Z,4.00
2018-12-23T16:10:14.003Z,4.17
2018-12-23T16:12:44.088Z,4.17
2018-12-23T16:15:13.876Z,4.30
2018-12-23T16:17:43.486Z,3.90
2018-12-23T16:20:14.754Z,4.47
2018-12-23T16:22:44.380Z,3.87
2018-12-23T16:25:14.011Z,3.73
2018-12-23T16:27:44.220Z,3.90
2018-12-23T16:30:13.856Z,4.03
2018-12-23T16:32:43.512Z,4.33
2018-12-23T16:35:13.396Z,4.30
2018-12-23T16:37:43.063Z,3.63
2018-12-23T16:40:14.149Z,4.10
2018-12-23T16:42:44.054Z,4.00
2018-12-23T16:45:32.689Z,4.23
2018-12-23T16:48:02.400Z,4.17
2018-12-23T16:50:32.030Z,4.63
2018-12-23T16:53:01.851Z,4.67
2018-12-23T16:55:31.525Z,4.80
2018-12-23T16:58:01.477Z,4.27
2018-12-23T17:00:32.792Z,4.53
2018-12-23T17:03:02.472Z,4.03
2018-12-23T17:05:32.149Z,4.80
2018-12-23T17:08:02.279Z,4.60
2018-12-23T17:15:44.263Z,4.93
2018-12-23T17:18:13.882Z,5.10
2018-12-23T17:20:43.545Z,4.60
2018-12-23T17:23:13.386Z,4.20
2018-12-23T17:25:43.040Z,4.70
2018-12-23T17:28:12.750Z,4.20
2018-12-23T17:30:42.627Z,4.37
2018-12-23T17:33:12.275Z,4.97
2018-12-23T17:36:01.514Z,5.03
2018-12-23T17:38:50.096Z,4.60
2018-12-23T17:41:20.699Z,4.47
2018-12-23T17:43:50.352Z,3.80
2018-12-23T17:46:20.006Z,4.30
2018-12-23T17:48:49.914Z,4.37
2018-12-23T17:51:19.542Z,4.37
2018-12-23T17:53:49.170Z,5.10
2018-12-23T17:56:19.048Z,4.27
2018-12-23T17:58:49.024Z,4.47
2018-12-23T18:01:18.649Z,4.50
2018-12-23T18:03:48.412Z,4.20
2018-12-23T18:06:18.097Z,4.30
2018-12-23T18:08:47.721Z,4.63
2018-12-23T18:11:17.661Z,4.50
2018-12-23T18:13:47.242Z,5.00
2018-12-23T18:16:16.996Z,4.27
2018-12-23T18:18:46.839Z,4.80
2018-12-23T18:21:17.332Z,4.23
2018-12-23T18:23:47.080Z,4.07
2018-12-23T18:26:17.222Z,4.13
2018-12-23T18:28:46.955Z,4.47
2018-12-23T18:31:16.602Z,4.73
2018-12-23T18:33:46.381Z,4.60
2018-12-23T18:36:16.033Z,4.77
2018-12-23T18:44:12.296Z,4.13
2018-12-23T18:46:41.962Z,4.53
2018-12-23T18:49:11.588Z,5.00
2018-12-23T18:51:41.358Z,4.83
2018-12-23T18:54:11.051Z,4.33
2018-12-23T18:56:43.720Z,4.07
2018-12-23T18:59:14.882Z,5.20
2018-12-23T19:01:54.179Z,4.83
2018-12-23T19:04:42.622Z,4.67
2018-12-23T19:07:12.557Z,4.23
2018-12-23T19:13:13.006Z,4.13
2018-12-23T19:16:20.485Z,4.57
2018-12-23T19:19:28.558Z,4.33
2018-12-23T19:22:36.031Z,5.13
2018-12-23T19:25:33.363Z,4.37
2018-12-23T19:28:25.353Z,4.20
2018-12-23T19:31:32.923Z,4.50
2018-12-23T19:34:40.380Z,4.53
2018-12-23T19:37:47.961Z,4.50
2018-12-23T19:40:55.433Z,4.57
2018-12-23T19:44:03.013Z,4.90
2018-12-23T19:47:10.470Z,4.00
2018-12-23T19:50:18.101Z,4.07
2018-12-23T19:53:25.572Z,4.43
2018-12-23T19:56:33.141Z,4.10
2018-12-23T19:59:40.598Z,4.43
2018-12-23T20:06:01.710Z,4.07
2018-12-23T20:09:09.250Z,3.87
2018-12-23T20:12:04.762Z,4.10
2018-12-23T20:15:12.275Z,4.27
2018-12-23T20:18:19.861Z,4.53
2018-12-23T20:21:00.906Z,4.20
2018-12-23T20:24:08.502Z,4.07
2018-12-23T20:27:16.031Z,3.43
2018-12-23T20:30:23.648Z,3.50
2018-12-23T20:33:31.203Z,4.27
2018-12-23T20:36:38.749Z,3.97
2018-12-23T20:39:46.260Z,4.17
2018-12-23T20:42:53.843Z,4.37
2018-12-23T20:46:01.336Z,3.70
2018-12-23T20:49:09.964Z,3.80
2018-12-23T20:52:17.528Z,3.60
2018-12-23T20:55:25.091Z,4.03
2018-12-23T21:01:31.379Z,3.63
2018-12-23T21:04:38.944Z,4.10
2018-12-23T21:07:46.694Z,4.47
2018-12-23T21:10:54.220Z,4.30
2018-12-23T21:14:01.917Z,4.23
2018-12-23T21:17:09.480Z,4.33
2018-12-23T21:20:17.368Z,4.57
2018-12-23T21:22:58.199Z,4.80
2018-12-23T21:25:39.643Z,4.70
2018-12-23T21:28:47.164Z,4.63
2018-12-23T21:31:51.174Z,4.63
2018-12-23T21:34:59.821Z,4.83
2018-12-23T21:38:12.174Z,4.57
2018-12-23T21:41:24.153Z,4.73
2018-12-23T21:44:26.431Z,4.70
2018-12-23T21:47:33.953Z,5.20
2018-12-23T21:50:41.594Z,4.37
2018-12-23T21:53:49.114Z,4.50
2018-12-23T21:56:56.812Z,4.13
2018-12-23T21:59:49.213Z,3.80
2018-12-23T22:02:57.341Z,4.63
2018-12-23T22:06:05.695Z,4.23
2018-12-23T22:09:13.251Z,4.50
2018-12-23T22:12:20.752Z,4.17
2018-12-23T22:14:50.863Z,3.97
2018-12-23T22:17:20.501Z,4.17
2018-12-23T22:19:50.185Z,4.37
2018-12-23T22:22:20.002Z,4.43
2018-12-23T22:24:49.774Z,3.33
2018-12-23T22:27:19.524Z,3.80
2018-12-23T22:29:49.527Z,4.03
2018-12-23T22:32:19.200Z,4.20
2018-12-23T22:34:48.885Z,3.83
2018-12-23T22:37:18.758Z,3.37
2018-12-23T22:39:48.417Z,3.67
2018-12-23T22:42:18.120Z,3.90
2018-12-23T22:44:48.066Z,4.47
2018-12-23T22:47:56.987Z,3.70
2018-12-23T22:50:27.035Z,4.03
2018-12-23T22:52:56.678Z,3.73
2018-12-23T22:55:26.366Z,3.87
2018-12-23T22:57:57.960Z,3.80
2018-12-23T23:00:46.449Z,4.20
2018-12-23T23:03:16.400Z,4.40
2018-12-23T23:05:46.047Z,4.30
2018-12-23T23:08:15.747Z,4.30
2018-12-23T23:10:46.439Z,4.30
2018-12-23T23:13:18.783Z,3.70
2018-12-23T23:15:47.959Z,3.73
2018-12-23T23:18:56.878Z,4.03
2018-12-23T23:21:45.906Z,3.97
2018-12-23T23:27:21.597Z,4.13
2018-12-23T23:29:51.235Z,3.50
2018-12-23T23:32:20.875Z,3.90
2018-12-23T23:37:41.688Z,4.17
2018-12-23T23:40:11.332Z,3.50
2018-12-23T23:42:41.009Z,3.63
2018-12-23T23:45:10.915Z,3.43
2018-12-23T23:47:40.667Z,3.53
2018-12-23T23:50:10.361Z,4.30
2018-12-23T23:52:59.148Z,4.03
2018-12-23T23:55:28.783Z,3.80
2018-12-23T23:57:58.461Z,3.37
